sensor_id;sensor_type;location;lat;lon;timestamp;pressure;altitude;pressure_sealevel;temperature;humidity
53932;BME280;39844;52.496;13.482;2024-03-25T00:00:03;99593.03;;;6.12;100.00
53932;BME280;39844;52.496;13.482;2024-03-25T00:02:28;99598.25;;;6.15;100.00
53932;BME280;39844;52.496;13.482;2024-03-25T00:04:54;99593.88;;;6.14;100.00
53932;BME280;39844;52.496;13.482;2024-03-25T00:07:19;99597.38;;;6.11;100.00
53932;BME280;39844;52.496;13.482;2024-03-25T00:09:44;99597.38;;;6.08;100.00
53932;BME280;39844;52.496;13.482;2024-03-25T00:12:09;99596.50;;;6.08;100.00
53932;BME280;39844;52.496;13.482;2024-03-25T00:14:35;99597.38;;;6.10;100.00
53932;BME280;39844;52.496;13.482;2024-03-25T00:17:00;99601.72;;;6.09;100.00
53932;BME280;39844;52.496;13.482;2024-03-25T00:19:25;99598.28;;;6.07;100.00
53932;BME280;39844;52.496;13.482;2024-03-25T00:21:51;99604.34;;;6.09;100.00
53932;BME280;39844;52.496;13.482;2024-03-25T00:24:16;99599.09;;;6.11;100.00
53932;BME280;39844;52.496;13.482;2024-03-25T00:26:41;99595.63;;;6.12;100.00
53932;BME280;39844;52.496;13.482;2024-03-25T00:29:06;99605.19;;;6.14;100.00
53932;BME280;39844;52.496;13.482;2024-03-25T00:31:32;99610.38;;;6.14;100.00
53932;BME280;39844;52.496;13.482;2024-03-25T00:33:57;99607.78;;;6.17;100.00
53932;BME280;39844;52.496;13.482;2024-03-25T00:36:22;99620.81;;;6.17;100.00
53932;BME280;39844;52.496;13.482;2024-03-25T00:38:48;99620.81;;;6.17;100.00
53932;BME280;39844;52.496;13.482;2024-03-25T00:41:13;99622.50;;;6.21;100.00
53932;BME280;39844;52.496;13.482;2024-03-25T00:43:38;99628.56;;;6.23;100.00
53932;BME280;39844;52.496;13.482;2024-03-25T00:46:03;99626.84;;;6.24;100.00
53932;BME280;39844;52.496;13.482;2024-03-25T00:48:29;99625.09;;;6.24;100.00
53932;BME280;39844;52.496;13.482;2024-03-25T00:50:54;99629.47;;;6.22;100.00
53932;BME280;39844;52.496;13.482;2024-03-25T00:53:19;99631.19;;;6.23;100.00
53932;BME280;39844;52.496;13.482;2024-03-25T00:55:45;99638.13;;;6.21;100.00
53932;BME280;39844;52.496;13.482;2024-03-25T00:58:10;99629.47;;;6.19;100.00
53932;BME280;39844;52.496;13.482;2024-03-25T01:00:35;99628.63;;;6.17;100.00
53932;BME280;39844;52.496;13.482;2024-03-25T01:03:01;99632.06;;;6.18;100.00
53932;BME280;39844;52.496;13.482;2024-03-25T01:05:26;99640.75;;;6.21;100.00
53932;BME280;39844;52.496;13.482;2024-03-25T01:07:51;99632.91;;;6.26;100.00
53932;BME280;39844;52.496;13.482;2024-03-25T01:10:17;99640.72;;;6.27;100.00
53932;BME280;39844;52.496;13.482;2024-03-25T01:12:42;99638.13;;;6.26;100.00
53932;BME280;39844;52.496;13.482;2024-03-25T01:15:07;99638.13;;;6.27;100.00
53932;BME280;39844;52.496;13.482;2024-03-25T01:17:33;99636.38;;;6.28;100.00
53932;BME280;39844;52.496;13.482;2024-03-25T01:19:58;99652.00;;;6.29;100.00
53932;BME280;39844;52.496;13.482;2024-03-25T01:22:23;99647.66;;;6.28;100.00
53932;BME280;39844;52.496;13.482;2024-03-25T01:24:49;99638.13;;;6.27;100.00
53932;BME280;39844;52.496;13.482;2024-03-25T01:27:14;99646.78;;;6.29;100.00
53932;BME280;39844;52.496;13.482;2024-03-25T01:29:39;99642.47;;;6.30;100.00
53932;BME280;39844;52.496;13.482;2024-03-25T01:32:05;99645.91;;;6.30;100.00
53932;BME280;39844;52.496;13.482;2024-03-25T01:34:30;99651.13;;;6.32;100.00
53932;BME280;39844;52.496;13.482;2024-03-25T01:36:55;99643.28;;;6.33;100.00
53932;BME280;39844;52.496;13.482;2024-03-25T01:39:21;99648.53;;;6.35;100.00
53932;BME280;39844;52.496;13.482;2024-03-25T01:41:46;99650.25;;;6.34;100.00
53932;BME280;39844;52.496;13.482;2024-03-25T01:44:11;99650.25;;;6.34;100.00
53932;BME280;39844;52.496;13.482;2024-03-25T01:46:37;99655.47;;;6.34;100.00
53932;BME280;39844;52.496;13.482;2024-03-25T01:49:03;99658.06;;;6.36;100.00
53932;BME280;39844;52.496;13.482;2024-03-25T01:51:28;99660.66;;;6.38;100.00
53932;BME280;39844;52.496;13.482;2024-03-25T01:53:54;99663.28;;;6.38;100.00
53932;BME280;39844;52.496;13.482;2024-03-25T01:56:23;99664.13;;;6.40;100.00
53932;BME280;39844;52.496;13.482;2024-03-25T01:58:49;99665.00;;;6.38;100.00
53932;BME280;39844;52.496;13.482;2024-03-25T02:01:15;99665.00;;;6.43;100.00
53932;BME280;39844;52.496;13.482;2024-03-25T02:03:44;99669.31;;;6.44;100.00
53932;BME280;39844;52.496;13.482;2024-03-25T02:06:13;99669.34;;;6.40;100.00
53932;BME280;39844;52.496;13.482;2024-03-25T02:08:42;99678.91;;;6.34;100.00
53932;BME280;39844;52.496;13.482;2024-03-25T02:11:08;99678.94;;;6.28;100.00
53932;BME280;39844;52.496;13.482;2024-03-25T02:13:35;99684.16;;;6.24;100.00
53932;BME280;39844;52.496;13.482;2024-03-25T02:16:01;99687.66;;;6.17;100.00
53932;BME280;39844;52.496;13.482;2024-03-25T02:18:26;99684.19;;;6.15;100.00
53932;BME280;39844;52.496;13.482;2024-03-25T02:20:52;99692.00;;;6.10;100.00
53932;BME280;39844;52.496;13.482;2024-03-25T02:23:18;99696.34;;;6.08;100.00
53932;BME280;39844;52.496;13.482;2024-03-25T02:25:49;99698.97;;;6.05;100.00
53932;BME280;39844;52.496;13.482;2024-03-25T02:28:15;99702.47;;;6.04;100.00
53932;BME280;39844;52.496;13.482;2024-03-25T02:30:40;99698.09;;;6.03;100.00
53932;BME280;39844;52.496;13.482;2024-03-25T02:33:05;99705.03;;;6.03;100.00
53932;BME280;39844;52.496;13.482;2024-03-25T02:35:31;99708.53;;;6.05;100.00
53932;BME280;39844;52.496;13.482;2024-03-25T02:37:56;99705.91;;;6.03;100.00
53932;BME280;39844;52.496;13.482;2024-03-25T02:40:22;99712.88;;;6.01;100.00
53932;BME280;39844;52.496;13.482;2024-03-25T02:42:48;99716.34;;;6.00;100.00
53932;BME280;39844;52.496;13.482;2024-03-25T02:45:14;99722.41;;;5.98;100.00
53932;BME280;39844;52.496;13.482;2024-03-25T02:47:39;99726.78;;;5.97;100.00
53932;BME280;39844;52.496;13.482;2024-03-25T02:50:05;99722.44;;;5.99;100.00
53932;BME280;39844;52.496;13.482;2024-03-25T02:52:30;99736.34;;;6.00;100.00
53932;BME280;39844;52.496;13.482;2024-03-25T02:54:55;99734.59;;;5.99;100.00
53932;BME280;39844;52.496;13.482;2024-03-25T02:57:21;99735.47;;;5.93;100.00
53932;BME280;39844;52.496;13.482;2024-03-25T02:59:46;99738.94;;;5.92;100.00
53932;BME280;39844;52.496;13.482;2024-03-25T03:02:11;99745.00;;;5.85;100.00
53932;BME280;39844;52.496;13.482;2024-03-25T03:04:36;99740.66;;;5.78;100.00
53932;BME280;39844;52.496;13.482;2024-03-25T03:07:02;99743.25;;;5.72;100.00
53932;BME280;39844;52.496;13.482;2024-03-25T03:09:27;99748.44;;;5.67;100.00
53932;BME280;39844;52.496;13.482;2024-03-25T03:11:53;99753.66;;;5.64;100.00
53932;BME280;39844;52.496;13.482;2024-03-25T03:14:18;99755.41;;;5.61;100.00
53932;BME280;39844;52.496;13.482;2024-03-25T03:16:43;99761.47;;;5.63;100.00
53932;BME280;39844;52.496;13.482;2024-03-25T03:19:08;99758.88;;;5.63;100.00
53932;BME280;39844;52.496;13.482;2024-03-25T03:21:34;99763.22;;;5.64;100.00
53932;BME280;39844;52.496;13.482;2024-03-25T03:23:59;99774.50;;;5.66;100.00
53932;BME280;39844;52.496;13.482;2024-03-25T03:26:24;99776.22;;;5.65;100.00
53932;BME280;39844;52.496;13.482;2024-03-25T03:28:50;99768.41;;;5.67;100.00
53932;BME280;39844;52.496;13.482;2024-03-25T03:31:15;99772.75;;;5.71;100.00
53932;BME280;39844;52.496;13.482;2024-03-25T03:33:40;99778.84;;;5.74;100.00
53932;BME280;39844;52.496;13.482;2024-03-25T03:36:06;99773.63;;;5.78;100.00
53932;BME280;39844;52.496;13.482;2024-03-25T03:38:31;99777.97;;;5.82;100.00
53932;BME280;39844;52.496;13.482;2024-03-25T03:41:01;99783.16;;;5.83;100.00
53932;BME280;39844;52.496;13.482;2024-03-25T03:43:26;99784.91;;;5.84;100.00
53932;BME280;39844;52.496;13.482;2024-03-25T03:45:52;99788.41;;;5.88;100.00
53932;BME280;39844;52.496;13.482;2024-03-25T03:48:17;99797.09;;;5.88;100.00
53932;BME280;39844;52.496;13.482;2024-03-25T03:50:45;99802.31;;;5.90;100.00
53932;BME280;39844;52.496;13.482;2024-03-25T03:53:11;99804.91;;;5.90;100.00
53932;BME280;39844;52.496;13.482;2024-03-25T03:55:36;99804.06;;;5.92;100.00
53932;BME280;39844;52.496;13.482;2024-03-25T03:58:02;99804.03;;;5.94;100.00
53932;BME280;39844;52.496;13.482;2024-03-25T04:00:27;99812.72;;;5.94;100.00
53932;BME280;39844;52.496;13.482;2024-03-25T04:02:53;99808.38;;;5.93;100.00
53932;BME280;39844;52.496;13.482;2024-03-25T04:05:18;99808.38;;;5.93;100.00
53932;BME280;39844;52.496;13.482;2024-03-25T04:07:44;99811.00;;;5.95;100.00
53932;BME280;39844;52.496;13.482;2024-03-25T04:10:09;99817.91;;;5.96;100.00
53932;BME280;39844;52.496;13.482;2024-03-25T04:12:34;99830.09;;;5.97;100.00
53932;BME280;39844;52.496;13.482;2024-03-25T04:15:00;99827.47;;;5.95;100.00
53932;BME280;39844;52.496;13.482;2024-03-25T04:17:25;99829.22;;;5.93;100.00
53932;BME280;39844;52.496;13.482;2024-03-25T04:19:51;99825.75;;;5.91;100.00
53932;BME280;39844;52.496;13.482;2024-03-25T04:22:16;99825.75;;;5.91;100.00
53932;BME280;39844;52.496;13.482;2024-03-25T04:24:43;99835.31;;;5.92;100.00
53932;BME280;39844;52.496;13.482;2024-03-25T04:27:08;99839.63;;;5.93;100.00
53932;BME280;39844;52.496;13.482;2024-03-25T04:29:52;99841.38;;;5.94;100.00
53932;BME280;39844;52.496;13.482;2024-03-25T04:32:37;99843.97;;;5.96;100.00
53932;BME280;39844;52.496;13.482;2024-03-25T04:35:22;99848.28;;;5.95;100.00
53932;BME280;39844;52.496;13.482;2024-03-25T04:38:08;99849.16;;;5.96;100.00
53932;BME280;39844;52.496;13.482;2024-03-25T04:40:54;99852.66;;;5.96;100.00
53932;BME280;39844;52.496;13.482;2024-03-25T04:43:39;99856.09;;;5.95;100.00
53932;BME280;39844;52.496;13.482;2024-03-25T04:46:25;99868.28;;;5.96;100.00
53932;BME280;39844;52.496;13.482;2024-03-25T04:49:10;99868.25;;;5.98;100.00
53932;BME280;39844;52.496;13.482;2024-03-25T04:51:56;99876.09;;;6.01;100.00
53932;BME280;39844;52.496;13.482;2024-03-25T04:54:43;99879.56;;;6.01;100.00
53932;BME280;39844;52.496;13.482;2024-03-25T04:57:28;99896.94;;;6.04;100.00
53932;BME280;39844;52.496;13.482;2024-03-25T05:00:14;99892.59;;;6.00;100.00
53932;BME280;39844;52.496;13.482;2024-03-25T05:03:00;99900.41;;;5.98;100.00
53932;BME280;39844;52.496;13.482;2024-03-25T05:05:45;99899.53;;;5.96;100.00
53932;BME280;39844;52.496;13.482;2024-03-25T05:08:31;99897.78;;;5.94;100.00
53932;BME280;39844;52.496;13.482;2024-03-25T05:11:17;99901.28;;;5.94;100.00
53932;BME280;39844;52.496;13.482;2024-03-25T05:14:02;99909.06;;;5.96;100.00
53932;BME280;39844;52.496;13.482;2024-03-25T05:16:48;99909.06;;;6.00;100.00
53932;BME280;39844;52.496;13.482;2024-03-25T05:19:34;99915.19;;;6.02;100.00
53932;BME280;39844;52.496;13.482;2024-03-25T05:22:19;99918.66;;;6.04;100.00
53932;BME280;39844;52.496;13.482;2024-03-25T05:25:05;99922.97;;;6.05;100.00
53932;BME280;39844;52.496;13.482;2024-03-25T05:27:50;99921.25;;;6.07;100.00
53932;BME280;39844;52.496;13.482;2024-03-25T05:30:36;99927.31;;;6.08;100.00
53932;BME280;39844;52.496;13.482;2024-03-25T05:33:22;99927.31;;;6.08;100.00
53932;BME280;39844;52.496;13.482;2024-03-25T05:36:07;99940.34;;;6.09;100.00
53932;BME280;39844;52.496;13.482;2024-03-25T05:38:53;99935.13;;;6.08;100.00
53932;BME280;39844;52.496;13.482;2024-03-25T05:41:39;99942.94;;;6.11;100.00
53932;BME280;39844;52.496;13.482;2024-03-25T05:44:04;99943.81;;;6.08;100.00
53932;BME280;39844;52.496;13.482;2024-03-25T05:46:29;99948.16;;;6.08;100.00
53932;BME280;39844;52.496;13.482;2024-03-25T05:48:55;99951.66;;;6.07;100.00
53932;BME280;39844;52.496;13.482;2024-03-25T05:51:20;99950.75;;;6.03;100.00
53932;BME280;39844;52.496;13.482;2024-03-25T05:53:45;99959.44;;;6.05;100.00
53932;BME280;39844;52.496;13.482;2024-03-25T05:56:10;99963.81;;;6.05;100.00
53932;BME280;39844;52.496;13.482;2024-03-25T05:58:36;99957.72;;;6.09;100.00
53932;BME280;39844;52.496;13.482;2024-03-25T06:01:01;99969.00;;;6.11;100.00
53932;BME280;39844;52.496;13.482;2024-03-25T06:03:26;99964.69;;;6.10;100.00
53932;BME280;39844;52.496;13.482;2024-03-25T06:05:52;99972.47;;;6.13;100.00
53932;BME280;39844;52.496;13.482;2024-03-25T06:08:17;99969.88;;;6.11;100.00
53932;BME280;39844;52.496;13.482;2024-03-25T06:10:42;99973.38;;;6.12;100.00
53932;BME280;39844;52.496;13.482;2024-03-25T06:13:07;99983.78;;;6.13;100.00
53932;BME280;39844;52.496;13.482;2024-03-25T06:15:33;99989.00;;;6.16;100.00
53932;BME280;39844;52.496;13.482;2024-03-25T06:17:58;99981.19;;;6.16;100.00
53932;BME280;39844;52.496;13.482;2024-03-25T06:20:23;99994.19;;;6.16;100.00
53932;BME280;39844;52.496;13.482;2024-03-25T06:22:49;99998.56;;;6.17;100.00
53932;BME280;39844;52.496;13.482;2024-03-25T06:25:14;100001.16;;;6.17;100.00
53932;BME280;39844;52.496;13.482;2024-03-25T06:27:39;99999.41;;;6.16;100.00
53932;BME280;39844;52.496;13.482;2024-03-25T06:30:05;100011.59;;;6.17;100.00
53932;BME280;39844;52.496;13.482;2024-03-25T06:32:30;100005.50;;;6.18;100.00
53932;BME280;39844;52.496;13.482;2024-03-25T06:34:56;100013.31;;;6.18;100.00
53932;BME280;39844;52.496;13.482;2024-03-25T06:37:21;100011.59;;;6.17;100.00
53932;BME280;39844;52.496;13.482;2024-03-25T06:39:46;100023.72;;;6.15;100.00
53932;BME280;39844;52.496;13.482;2024-03-25T06:42:12;100022.88;;;6.15;100.00
53932;BME280;39844;52.496;13.482;2024-03-25T06:44:37;100027.22;;;6.14;100.00
53932;BME280;39844;52.496;13.482;2024-03-25T06:47:02;100034.13;;;6.15;100.00
53932;BME280;39844;52.496;13.482;2024-03-25T06:49:28;100035.00;;;6.16;100.00
53932;BME280;39844;52.496;13.482;2024-03-25T06:51:53;100046.31;;;6.16;100.00
53932;BME280;39844;52.496;13.482;2024-03-25T06:54:18;100045.44;;;6.14;100.00
53932;BME280;39844;52.496;13.482;2024-03-25T06:56:44;100047.16;;;6.15;100.00
53932;BME280;39844;52.496;13.482;2024-03-25T06:59:09;100056.72;;;6.16;100.00
53932;BME280;39844;52.496;13.482;2024-03-25T07:01:34;100053.25;;;6.14;100.00
53932;BME280;39844;52.496;13.482;2024-03-25T07:03:59;100057.59;;;6.17;100.00
53932;BME280;39844;52.496;13.482;2024-03-25T07:06:25;100062.78;;;6.15;100.00
53932;BME280;39844;52.496;13.482;2024-03-25T07:08:50;100068.88;;;6.14;100.00
53932;BME280;39844;52.496;13.482;2024-03-25T07:11:15;100072.38;;;6.16;100.00
53932;BME280;39844;52.496;13.482;2024-03-25T07:13:41;100069.78;;;6.19;100.00
53932;BME280;39844;52.496;13.482;2024-03-25T07:16:06;100082.81;;;6.19;100.00
53932;BME280;39844;52.496;13.482;2024-03-25T07:18:34;100087.13;;;6.19;100.00
53932;BME280;39844;52.496;13.482;2024-03-25T07:20:59;100094.94;;;6.19;100.00
53932;BME280;39844;52.496;13.482;2024-03-25T07:23:24;100096.69;;;6.18;100.00
53932;BME280;39844;52.496;13.482;2024-03-25T07:25:49;100088.00;;;6.19;100.00
53932;BME280;39844;52.496;13.482;2024-03-25T07:28:15;100100.16;;;6.20;100.00
53932;BME280;39844;52.496;13.482;2024-03-25T07:30:42;100093.22;;;6.19;100.00
53932;BME280;39844;52.496;13.482;2024-03-25T07:33:07;100103.66;;;6.19;100.00
53932;BME280;39844;52.496;13.482;2024-03-25T07:35:33;100111.47;;;6.19;100.00
53932;BME280;39844;52.496;13.482;2024-03-25T07:37:58;100110.59;;;6.19;100.00
53932;BME280;39844;52.496;13.482;2024-03-25T07:40:23;100108.84;;;6.16;100.00
53932;BME280;39844;52.496;13.482;2024-03-25T07:42:49;100113.19;;;6.17;100.00
53932;BME280;39844;52.496;13.482;2024-03-25T07:45:15;100129.69;;;6.18;100.00
53932;BME280;39844;52.496;13.482;2024-03-25T07:47:40;100125.34;;;6.17;100.00
53932;BME280;39844;52.496;13.482;2024-03-25T07:50:06;100128.81;;;6.20;100.00
53932;BME280;39844;52.496;13.482;2024-03-25T07:52:32;100130.59;;;6.26;100.00
53932;BME280;39844;52.496;13.482;2024-03-25T07:54:57;100134.94;;;6.28;100.00
53932;BME280;39844;52.496;13.482;2024-03-25T07:57:23;100143.63;;;6.30;100.00
53932;BME280;39844;52.496;13.482;2024-03-25T07:59:48;100148.84;;;6.27;100.00
53932;BME280;39844;52.496;13.482;2024-03-25T08:02:13;100137.56;;;6.31;100.00
53932;BME280;39844;52.496;13.482;2024-03-25T08:04:39;100152.34;;;6.34;100.00
53932;BME280;39844;52.496;13.482;2024-03-25T08:07:05;100155.81;;;6.31;100.00
53932;BME280;39844;52.496;13.482;2024-03-25T08:09:30;100153.19;;;6.28;100.00
53932;BME280;39844;52.496;13.482;2024-03-25T08:11:56;100152.31;;;6.31;100.00
53932;BME280;39844;52.496;13.482;2024-03-25T08:14:21;100155.81;;;6.31;100.00
53932;BME280;39844;52.496;13.482;2024-03-25T08:16:47;100153.19;;;6.30;100.00
53932;BME280;39844;52.496;13.482;2024-03-25T08:19:12;100158.44;;;6.34;100.00
53932;BME280;39844;52.496;13.482;2024-03-25T08:21:37;100161.94;;;6.38;100.00
53932;BME280;39844;52.496;13.482;2024-03-25T08:24:03;100159.31;;;6.40;100.00
53932;BME280;39844;52.496;13.482;2024-03-25T08:26:28;100162.81;;;6.43;100.00
53932;BME280;39844;52.496;13.482;2024-03-25T08:28:53;100167.16;;;6.49;100.00
53932;BME280;39844;52.496;13.482;2024-03-25T08:31:19;100174.16;;;6.56;100.00
53932;BME280;39844;52.496;13.482;2024-03-25T08:33:44;100179.38;;;6.62;100.00
53932;BME280;39844;52.496;13.482;2024-03-25T08:36:09;100174.19;;;6.68;100.00
53932;BME280;39844;52.496;13.482;2024-03-25T08:38:35;100188.97;;;6.76;100.00
53932;BME280;39844;52.496;13.482;2024-03-25T08:41:00;100192.47;;;6.80;100.00
53932;BME280;39844;52.496;13.482;2024-03-25T08:43:26;100187.25;;;6.83;100.00
53932;BME280;39844;52.496;13.482;2024-03-25T08:45:51;100194.22;;;6.85;100.00
53932;BME280;39844;52.496;13.482;2024-03-25T08:48:16;100198.59;;;6.91;100.00
53932;BME280;39844;52.496;13.482;2024-03-25T08:50:41;100208.16;;;6.98;100.00
53932;BME280;39844;52.496;13.482;2024-03-25T08:53:07;100202.94;;;6.98;100.00
53932;BME280;39844;52.496;13.482;2024-03-25T08:55:32;100200.34;;;6.96;100.00
53932;BME280;39844;52.496;13.482;2024-03-25T08:57:57;100202.94;;;6.98;100.00
53932;BME280;39844;52.496;13.482;2024-03-25T09:00:23;100205.53;;;6.99;100.00
53932;BME280;39844;52.496;13.482;2024-03-25T09:02:48;100218.59;;;6.98;100.00
53932;BME280;39844;52.496;13.482;2024-03-25T09:05:13;100215.97;;;6.99;100.00
53932;BME280;39844;52.496;13.482;2024-03-25T09:07:39;100218.59;;;7.01;100.00
53932;BME280;39844;52.496;13.482;2024-03-25T09:10:04;100218.63;;;7.04;100.00
53932;BME280;39844;52.496;13.482;2024-03-25T09:12:29;100227.34;;;7.09;100.00
53932;BME280;39844;52.496;13.482;2024-03-25T09:14:55;100233.44;;;7.14;100.00
53932;BME280;39844;52.496;13.482;2024-03-25T09:17:20;100223.84;;;7.12;100.00
53932;BME280;39844;52.496;13.482;2024-03-25T09:19:45;100228.22;;;7.19;100.00
53932;BME280;39844;52.496;13.482;2024-03-25T09:22:11;100228.22;;;7.23;100.00
53932;BME280;39844;52.496;13.482;2024-03-25T09:24:36;100244.72;;;7.25;100.00
53932;BME280;39844;52.496;13.482;2024-03-25T09:27:01;100250.81;;;7.27;100.00
53932;BME280;39844;52.496;13.482;2024-03-25T09:29:26;100238.66;;;7.32;100.00
53932;BME280;39844;52.496;13.482;2024-03-25T09:31:52;100240.41;;;7.33;100.00
53932;BME280;39844;52.496;13.482;2024-03-25T09:34:17;100246.47;;;7.32;98.92
53932;BME280;39844;52.496;13.482;2024-03-25T09:36:42;100244.75;;;7.34;99.98
53932;BME280;39844;52.496;13.482;2024-03-25T09:39:08;100243.00;;;7.38;100.00
53932;BME280;39844;52.496;13.482;2024-03-25T09:41:35;100243.88;;;7.35;98.18
53932;BME280;39844;52.496;13.482;2024-03-25T09:44:00;100254.34;;;7.37;98.24
53932;BME280;39844;52.496;13.482;2024-03-25T09:46:26;100252.59;;;7.34;96.85
53932;BME280;39844;52.496;13.482;2024-03-25T09:48:53;100263.91;;;7.41;98.39
53932;BME280;39844;52.496;13.482;2024-03-25T09:51:19;100258.69;;;7.45;96.22
53932;BME280;39844;52.496;13.482;2024-03-25T09:53:44;100259.56;;;7.49;96.49
53932;BME280;39844;52.496;13.482;2024-03-25T09:56:10;100258.72;;;7.50;95.60
53932;BME280;39844;52.496;13.482;2024-03-25T09:58:36;100264.81;;;7.52;96.46
53932;BME280;39844;52.496;13.482;2024-03-25T10:01:02;100269.13;;;7.48;94.93
53932;BME280;39844;52.496;13.482;2024-03-25T10:03:27;100273.50;;;7.49;96.23
53932;BME280;39844;52.496;13.482;2024-03-25T10:05:52;100275.25;;;7.52;96.03
53932;BME280;39844;52.496;13.482;2024-03-25T10:08:21;100282.22;;;7.59;96.74
53932;BME280;39844;52.496;13.482;2024-03-25T10:10:46;100277.84;;;7.65;96.06
53932;BME280;39844;52.496;13.482;2024-03-25T10:13:12;100281.34;;;7.75;96.57
53932;BME280;39844;52.496;13.482;2024-03-25T10:15:37;100277.00;;;7.89;94.71
53932;BME280;39844;52.496;13.482;2024-03-25T10:18:02;100283.94;;;7.96;91.87
53932;BME280;39844;52.496;13.482;2024-03-25T10:20:28;100290.03;;;8.09;92.31
53932;BME280;39844;52.496;13.482;2024-03-25T10:22:53;100286.56;;;8.16;90.70
53932;BME280;39844;52.496;13.482;2024-03-25T10:25:23;100281.31;;;8.19;89.80
53932;BME280;39844;52.496;13.482;2024-03-25T10:28:01;100294.38;;;8.22;90.33
53932;BME280;39844;52.496;13.482;2024-03-25T10:30:28;100286.53;;;8.25;88.22
53932;BME280;39844;52.496;13.482;2024-03-25T10:33:06;100284.81;;;8.27;87.35
53932;BME280;39844;52.496;13.482;2024-03-25T10:35:35;100286.56;;;8.26;86.33
53932;BME280;39844;52.496;13.482;2024-03-25T10:38:05;100293.50;;;8.21;85.34
53932;BME280;39844;52.496;13.482;2024-03-25T10:40:35;100290.03;;;8.22;84.50
53932;BME280;39844;52.496;13.482;2024-03-25T10:43:05;100295.28;;;8.21;84.44
53932;BME280;39844;52.496;13.482;2024-03-25T10:45:32;100297.88;;;8.22;83.85
53932;BME280;39844;52.496;13.482;2024-03-25T10:48:02;100296.13;;;8.24;83.50
53932;BME280;39844;52.496;13.482;2024-03-25T10:50:29;100293.53;;;8.26;81.53
53932;BME280;39844;52.496;13.482;2024-03-25T10:52:57;100292.66;;;8.30;81.22
53932;BME280;39844;52.496;13.482;2024-03-25T10:55:24;100296.13;;;8.40;81.90
53932;BME280;39844;52.496;13.482;2024-03-25T10:57:50;100286.53;;;8.43;80.72
53932;BME280;39844;52.496;13.482;2024-03-25T11:00:16;100290.88;;;8.53;80.31
53932;BME280;39844;52.496;13.482;2024-03-25T11:02:43;100291.69;;;8.70;80.97
53932;BME280;39844;52.496;13.482;2024-03-25T11:05:09;100291.63;;;8.82;79.44
53932;BME280;39844;52.496;13.482;2024-03-25T11:07:35;100283.75;;;8.95;78.70
53932;BME280;39844;52.496;13.482;2024-03-25T11:10:07;100290.66;;;9.09;77.76
53932;BME280;39844;52.496;13.482;2024-03-25T11:12:37;100287.97;;;9.23;78.03
53932;BME280;39844;52.496;13.482;2024-03-25T11:15:03;100289.66;;;9.31;77.03
53932;BME280;39844;52.496;13.482;2024-03-25T11:17:30;100287.91;;;9.32;75.80
53932;BME280;39844;52.496;13.482;2024-03-25T11:20:09;100289.69;;;9.24;73.95
53932;BME280;39844;52.496;13.482;2024-03-25T11:22:34;100289.72;;;9.22;73.44
53932;BME280;39844;52.496;13.482;2024-03-25T11:25:06;100288.78;;;9.32;75.23
53932;BME280;39844;52.496;13.482;2024-03-25T11:27:33;100280.00;;;9.36;73.38
53932;BME280;39844;52.496;13.482;2024-03-25T11:30:01;100288.69;;;9.47;72.80
53932;BME280;39844;52.496;13.482;2024-03-25T11:32:29;100279.03;;;9.54;71.41
53932;BME280;39844;52.496;13.482;2024-03-25T11:34:55;100283.34;;;9.60;71.95
53932;BME280;39844;52.496;13.482;2024-03-25T11:37:20;100284.22;;;9.63;70.08
53932;BME280;39844;52.496;13.482;2024-03-25T11:39:45;100280.66;;;9.73;69.72
53932;BME280;39844;52.496;13.482;2024-03-25T11:42:12;100278.91;;;9.69;69.42
53932;BME280;39844;52.496;13.482;2024-03-25T11:44:38;100279.69;;;9.82;69.19
53932;BME280;39844;52.496;13.482;2024-03-25T11:47:04;100272.59;;;9.93;69.10
53932;BME280;39844;52.496;13.482;2024-03-25T11:49:29;100281.22;;;10.05;70.40
53932;BME280;39844;52.496;13.482;2024-03-25T11:51:55;100282.19;;;9.98;67.78
53932;BME280;39844;52.496;13.482;2024-03-25T11:54:20;100282.19;;;9.95;68.87
53932;BME280;39844;52.496;13.482;2024-03-25T11:56:45;100273.53;;;9.87;65.94
53932;BME280;39844;52.496;13.482;2024-03-25T11:59:11;100283.25;;;9.73;67.55
53932;BME280;39844;52.496;13.482;2024-03-25T12:01:37;100281.50;;;9.72;68.87
53932;BME280;39844;52.496;13.482;2024-03-25T12:04:16;100285.88;;;9.73;68.35
53932;BME280;39844;52.496;13.482;2024-03-25T12:06:42;100288.56;;;9.63;66.13
53932;BME280;39844;52.496;13.482;2024-03-25T12:09:07;100284.22;;;9.63;66.42
53932;BME280;39844;52.496;13.482;2024-03-25T12:11:33;100280.63;;;9.75;66.71
53932;BME280;39844;52.496;13.482;2024-03-25T12:13:59;100284.03;;;9.84;65.41
53932;BME280;39844;52.496;13.482;2024-03-25T12:16:25;100280.50;;;9.91;66.69
53932;BME280;39844;52.496;13.482;2024-03-25T12:18:51;100284.75;;;10.03;65.74
53932;BME280;39844;52.496;13.482;2024-03-25T12:21:17;100284.69;;;10.10;66.33
53932;BME280;39844;52.496;13.482;2024-03-25T12:23:43;100275.91;;;10.14;65.62
53932;BME280;39844;52.496;13.482;2024-03-25T12:26:08;100275.44;;;10.61;68.02
53932;BME280;39844;52.496;13.482;2024-03-25T12:28:34;100275.91;;;10.95;64.62
53932;BME280;39844;52.496;13.482;2024-03-25T12:30:59;100278.94;;;11.30;65.16
53932;BME280;39844;52.496;13.482;2024-03-25T12:33:25;100265.81;;;11.30;61.31
53932;BME280;39844;52.496;13.482;2024-03-25T12:35:51;100270.47;;;11.10;62.30
53932;BME280;39844;52.496;13.482;2024-03-25T12:38:26;100271.59;;;10.88;61.63
53932;BME280;39844;52.496;13.482;2024-03-25T12:40:53;100276.31;;;10.62;63.66
53932;BME280;39844;52.496;13.482;2024-03-25T12:43:19;100272.22;;;10.37;63.11
53932;BME280;39844;52.496;13.482;2024-03-25T12:45:44;100273.19;;;10.25;65.32
53932;BME280;39844;52.496;13.482;2024-03-25T12:48:10;100273.25;;;10.21;66.05